Time;durP1;ratioP1;P1;durP2;ratioP2;P2;SDS_P1;SDS_P2;PMS_P1;PMS_P2;Temp;Humidity;BMP_temperature;BMP_pressure;BME280_temperature;BME280_humidity;BME280_pressure;Samples;Min_cycle;Max_cycle;Signal;HPM_P1;HPM_P2
2021/07/03 00:03:13;;;;;;;49.75;24.10;;;;;;;13.30;87.48;101851.03;5007059;28;20037;-82
2021/07/03 00:05:44;;;;;;;49.13;23.35;;;;;;;13.29;87.20;101851.88;5046374;28;20544;-81
2021/07/03 00:09:04;;;;;;;50.67;23.02;;;;;;;13.27;87.15;101837.75;5049968;28;20064;-83
2021/07/03 00:11:36;;;;;;;46.78;24.02;;;;;;;13.29;87.21;101833.38;5036470;28;20057;-83
2021/07/03 00:17:25;;;;;;;52.15;22.88;;;;;;;13.35;86.95;101830.88;5046381;28;20122;-81
2021/07/03 00:20:58;;;;;;;63.22;27.08;;;;;;;13.40;87.21;101825.72;5048884;28;20047;-80
2021/07/03 00:23:59;;;;;;;53.70;23.08;;;;;;;13.45;87.43;101827.59;5051427;28;20041;-80
2021/07/03 00:26:48;;;;;;;56.35;26.35;;;;;;;13.50;87.65;101827.69;5048648;28;20048;-82
2021/07/03 00:29:49;;;;;;;;;;;;;;;;;;;;;
2021/07/03 00:32:48;;;;;;;55.97;24.13;;;;;;;13.56;87.74;101821.63;5047459;28;20390;-81
2021/07/03 00:36:03;;;;;;;57.08;25.75;;;;;;;13.56;87.49;101816.34;5049618;28;20056;-82
2021/07/03 00:39:26;;;;;;;58.90;27.17;;;;;;;13.49;87.61;101818.84;5051115;28;20099;-80
2021/07/03 00:42:02;;;;;;;50.40;24.08;;;;;;;13.48;87.52;101819.75;5052083;28;20418;-81
2021/07/03 00:45:19;;;;;;;50.72;26.73;;;;;;;13.48;87.99;101821.47;5051424;28;20047;-80
2021/07/03 00:48:01;;;;;;;60.15;27.90;;;;;;;13.42;87.67;101827.53;5050006;28;20471;-81
2021/07/03 00:51:01;;;;;;;53.13;25.65;;;;;;;13.38;87.77;101816.88;5048223;28;20503;-80
2021/07/03 00:53:52;;;;;;;48.85;24.23;;;;;;;13.32;87.98;101813.22;5051011;28;20059;-82
2021/07/03 00:56:42;;;;;;;61.55;26.70;;;;;;;13.30;88.28;101814.91;5043761;28;20049;-81
2021/07/03 00:59:37;;;;;;;55.72;28.42;;;;;;;13.28;87.95;101821.03;5051187;28;20037;-80
2021/07/03 01:02:32;;;;;;;66.43;29.13;;;;;;;13.26;87.95;101817.47;5045649;28;20056;-81
2021/07/03 01:05:44;;;;;;;57.83;26.55;;;;;;;13.23;88.06;101818.28;5051039;28;20040;-82
2021/07/03 01:08:57;;;;;;;59.38;25.88;;;;;;;13.27;87.67;101816.63;5048376;28;20401;-81
2021/07/03 01:11:50;;;;;;;66.80;27.65;;;;;;;13.29;87.71;101821.09;5049926;28;21391;-82
2021/07/03 01:15:12;;;;;;;;;;;;;;;;;;;;;
2021/07/03 01:17:57;;;;;;;61.45;26.63;;;;;;;13.35;87.81;101822.03;5028259;28;20067;-82
2021/07/03 01:20:48;;;;;;;66.72;28.67;;;;;;;13.37;87.75;101818.59;5050862;28;20032;-82
2021/07/03 01:24:16;;;;;;;;;;;;;;;;;;;;;
2021/07/03 01:27:02;;;;;;;74.15;29.52;;;;;;;13.36;88.60;101816.84;5046235;28;20037;-82
2021/07/03 01:29:56;;;;;;;70.10;30.95;;;;;;;13.39;88.19;101808.97;5045740;28;20064;-81
2021/07/03 01:32:42;;;;;;;76.05;32.30;;;;;;;13.40;88.94;101809.84;5042296;28;20064;-81
2021/07/03 01:38:42;;;;;;;72.20;29.75;;;;;;;13.39;88.58;101805.41;5040508;28;20494;-81
2021/07/03 01:41:56;;;;;;;64.57;28.77;;;;;;;13.41;88.63;101804.59;5047964;28;20546;-79
2021/07/03 01:44:44;;;;;;;66.55;28.40;;;;;;;13.45;88.57;101795.84;5047658;28;20051;-80
2021/07/03 01:47:35;;;;;;;75.68;32.13;;;;;;;13.47;89.06;101801.22;5042749;28;20025;-81
2021/07/03 01:50:06;;;;;;;71.85;31.17;;;;;;;13.45;89.07;101798.50;5049710;28;20037;-79
2021/07/03 01:52:34;;;;;;;57.30;27.10;;;;;;;13.51;88.69;101791.56;5040974;28;20033;-79
2021/07/03 01:55:20;;;;;;;69.22;31.83;;;;;;;13.55;89.03;101789.03;5051322;28;20075;-79
2021/07/03 01:57:56;;;;;;;58.75;29.30;;;;;;;13.56;89.41;101797.84;5044351;28;20043;-82
2021/07/03 02:00:26;;;;;;;67.35;31.05;;;;;;;13.54;89.40;101796.91;5048172;28;20024;-82
2021/07/03 02:02:54;;;;;;;64.22;30.73;;;;;;;13.57;89.27;101792.56;5047559;28;20037;-81
2021/07/03 02:05:26;;;;;;;65.03;31.25;;;;;;;13.61;89.40;101788.25;5044656;28;20865;-81
2021/07/03 02:08:15;;;;;;;60.38;27.38;;;;;;;13.65;89.52;101779.50;5045195;28;20132;-81
2021/07/03 02:10:55;;;;;;;66.28;29.58;;;;;;;13.66;89.73;101773.38;5049283;28;20032;-81
2021/07/03 02:13:21;;;;;;;70.80;32.42;;;;;;;13.71;89.44;101770.78;5046797;28;20129;-80
2021/07/03 02:15:51;;;;;;;74.03;32.75;;;;;;;13.75;89.66;101768.22;5049690;28;20111;-81
2021/07/03 02:18:19;;;;;;;67.15;33.05;;;;;;;13.77;89.75;101765.63;5048037;28;20461;-80
2021/07/03 02:21:10;;;;;;;61.53;30.65;;;;;;;13.79;89.67;101758.59;5049020;28;20048;-80
2021/07/03 02:23:43;;;;;;;69.70;31.88;;;;;;;13.78;89.49;101762.09;5048366;28;20178;-80
2021/07/03 02:26:16;;;;;;;72.25;31.83;;;;;;;13.80;89.56;101757.75;5041006;28;20471;-79
2021/07/03 02:28:50;;;;;;;64.57;29.58;;;;;;;13.83;89.39;101756.00;5046806;28;20422;-80
2021/07/03 02:31:35;;;;;;;61.20;29.95;;;;;;;13.87;89.57;101748.16;5041740;28;20025;-82
2021/07/03 02:34:36;;;;;;;72.55;33.80;;;;;;;13.91;89.28;101755.28;5046755;28;20052;-80
2021/07/03 02:37:09;;;;;;;72.35;32.20;;;;;;;13.91;89.38;101750.00;5045056;28;20083;-80
2021/07/03 02:40:12;;;;;;;65.15;31.52;;;;;;;13.91;89.39;101747.34;5046025;28;20029;-82
2021/07/03 02:43:07;;;;;;;66.30;32.70;;;;;;;13.92;89.17;101742.06;5044840;28;20055;-80
2021/07/03 02:45:32;;;;;;;61.67;31.05;;;;;;;13.92;89.20;101754.44;5040258;28;20090;-82
2021/07/03 02:48:07;;;;;;;71.57;33.55;;;;;;;13.91;89.03;101752.63;5049376;28;20517;-81
2021/07/03 02:50:35;;;;;;;67.78;30.92;;;;;;;13.89;89.08;101746.41;5049714;28;20036;-82
2021/07/03 02:53:08;;;;;;;71.88;33.85;;;;;;;13.88;89.08;101744.66;5051165;28;20044;-80
2021/07/03 02:55:36;;;;;;;73.30;34.10;;;;;;;13.87;89.30;101749.03;5048237;28;20086;-81
2021/07/03 02:58:15;;;;;;;;;;;;;;;;;;;;;
2021/07/03 03:00:44;;;;;;;73.18;33.63;;;;;;;13.83;89.22;101741.91;5044372;28;20055;-81
2021/07/03 03:03:09;;;;;;;63.00;32.03;;;;;;;13.81;89.08;101743.66;5044155;28;20038;-81
2021/07/03 03:05:38;;;;;;;73.80;33.50;;;;;;;13.78;89.11;101736.56;5051599;28;20035;-79
2021/07/03 03:08:26;;;;;;;71.78;34.22;;;;;;;13.76;88.94;101740.91;5051438;28;20060;-81
2021/07/03 03:11:02;;;;;;;73.65;35.75;;;;;;;13.76;89.34;101735.63;5046337;28;20116;-80
2021/07/03 03:13:36;;;;;;;71.43;34.60;;;;;;;13.77;89.15;101745.34;5051984;28;20032;-80
2021/07/03 03:16:06;;;;;;;76.07;32.90;;;;;;;13.80;89.28;101741.88;5047371;28;20025;-79
2021/07/03 03:18:40;;;;;;;80.10;36.95;;;;;;;13.79;89.11;101740.94;5050787;28;20037;-79
2021/07/03 03:21:29;;;;;;;81.20;35.95;;;;;;;13.78;89.07;101733.91;5052777;28;20075;-81
2021/07/03 03:24:03;;;;;;;77.38;34.90;;;;;;;13.78;89.15;101733.91;5051763;28;20116;-80
2021/07/03 03:26:31;;;;;;;77.70;36.60;;;;;;;13.77;89.29;101729.47;5049898;28;20072;-81
2021/07/03 03:28:59;;;;;;;82.55;38.38;;;;;;;13.78;89.38;101733.91;5054157;28;20485;-80
2021/07/03 03:31:47;;;;;;;69.68;31.98;;;;;;;13.82;89.14;101734.81;5048961;28;20095;-81
2021/07/03 03:34:21;;;;;;;71.20;34.67;;;;;;;13.87;88.92;101732.28;5054594;28;20043;-80
2021/07/03 03:36:57;;;;;;;70.30;33.03;;;;;;;13.87;89.04;101727.00;5050167;28;20036;-79
2021/07/03 03:39:31;;;;;;;71.43;34.42;;;;;;;13.87;89.04;101733.16;5050431;28;20071;-80
2021/07/03 03:42:02;;;;;;;79.13;36.33;;;;;;;13.82;89.07;101735.75;5048367;28;20522;-82
2021/07/03 03:44:33;;;;;;;84.82;36.20;;;;;;;13.85;89.21;101728.72;5045293;28;20257;-81
2021/07/03 03:47:22;;;;;;;74.18;35.10;;;;;;;13.87;88.79;101734.94;5049135;28;20025;-79
2021/07/03 03:50:11;;;;;;;82.60;37.38;;;;;;;13.90;89.11;101729.69;5077767;28;20045;-80
2021/07/03 03:53:01;;;;;;;74.88;37.88;;;;;;;13.94;88.92;101734.16;5052356;28;20123;-80
2021/07/03 03:55:34;;;;;;;80.60;37.47;;;;;;;13.96;88.95;101727.16;5048798;28;20068;-79
2021/07/03 03:58:00;;;;;;;85.72;39.50;;;;;;;13.98;89.21;101726.31;5048088;28;20057;-81
2021/07/03 04:00:32;;;;;;;78.72;37.53;;;;;;;14.03;89.34;101728.16;5049917;28;20123;-79
2021/07/03 04:03:17;;;;;;;72.40;34.38;;;;;;;14.10;88.84;101730.91;5051517;28;20479;-80
2021/07/03 04:05:51;;;;;;;72.03;34.08;;;;;;;14.12;88.94;101730.91;5043751;28;20029;-82
2021/07/03 04:08:33;;;;;;;71.35;34.80;;;;;;;14.18;89.00;101732.81;5052860;28;20017;-82
2021/07/03 04:11:04;;;;;;;79.68;37.67;;;;;;;14.23;89.04;101731.09;5046625;28;20041;-81
2021/07/03 04:13:32;;;;;;;80.18;40.42;;;;;;;14.26;88.75;101733.81;5051726;28;20126;-80
2021/07/03 04:16:00;;;;;;;80.03;39.10;;;;;;;14.30;89.05;101727.69;5048048;28;20083;-80
2021/07/03 04:18:31;;;;;;;75.88;38.65;;;;;;;14.34;88.77;101727.75;5051693;28;20025;-80
2021/07/03 04:20:57;;;;;;;84.10;40.50;;;;;;;14.38;88.55;101719.84;5049716;28;20445;-81
2021/07/03 04:23:22;;;;;;;82.95;40.88;;;;;;;14.44;88.46;101725.25;5052208;28;20036;-80
2021/07/03 04:25:50;;;;;;;77.25;39.88;;;;;;;14.53;88.52;101716.53;5049176;28;20037;-80
2021/07/03 04:28:18;;;;;;;78.80;37.45;;;;;;;14.60;88.21;101718.41;5051244;28;20490;-80
2021/07/03 04:30:44;;;;;;;73.80;39.15;;;;;;;14.72;88.00;101715.06;5047296;28;20060;-81
2021/07/03 04:33:12;;;;;;;69.95;36.50;;;;;;;14.81;87.64;101713.44;5044557;28;20578;-81
2021/07/03 04:35:45;;;;;;;71.13;38.80;;;;;;;14.91;87.30;101721.53;5045351;28;20403;-79
2021/07/03 04:38:11;;;;;;;69.50;37.05;;;;;;;15.00;87.08;101726.91;5046546;28;20021;-80
2021/07/03 04:40:40;;;;;;;68.65;36.50;;;;;;;15.06;86.63;101724.34;5050327;28;20120;-79
2021/07/03 04:43:08;;;;;;;68.85;37.70;;;;;;;15.12;86.43;101723.53;5049705;28;20059;-80
2021/07/03 04:45:37;;;;;;;55.92;33.33;;;;;;;15.17;86.34;101720.06;5051945;28;20495;-79
2021/07/03 04:48:22;;;;;;;70.45;37.42;;;;;;;15.24;86.06;101723.66;5049244;28;20037;-81
2021/07/03 04:50:50;;;;;;;72.93;37.50;;;;;;;15.28;85.83;101717.53;5051167;28;20506;-81
2021/07/03 04:53:19;;;;;;;71.53;37.70;;;;;;;15.33;85.96;101721.13;5048973;28;20425;-81
2021/07/03 04:55:57;;;;;;;62.35;36.30;;;;;;;15.43;86.13;101711.50;5049033;28;20033;-79
2021/07/03 04:58:22;;;;;;;62.92;35.90;;;;;;;15.45;85.85;101712.41;5044247;28;20043;-80
2021/07/03 05:00:53;;;;;;;63.05;36.38;;;;;;;15.44;85.17;101715.94;5052742;28;20029;-80
2021/07/03 05:03:19;;;;;;;70.70;38.20;;;;;;;15.45;84.97;101716.81;5047706;28;20086;-81
2021/07/03 05:05:44;;;;;;;65.47;36.63;;;;;;;15.46;85.28;101708.00;5051674;28;20040;-82
2021/07/03 05:08:13;;;;;;;65.72;37.28;;;;;;;15.59;85.71;101706.38;5047752;28;20040;-79
2021/07/03 05:10:42;;;;;;;66.22;38.33;;;;;;;15.55;84.95;101710.75;5042314;28;20375;-80
2021/07/03 05:13:10;;;;;;;67.20;37.17;;;;;;;15.64;85.46;101702.88;5041707;28;20032;-79
2021/07/03 05:15:40;;;;;;;66.57;35.35;;;;;;;15.63;84.40;101698.44;5045518;28;20068;-80
2021/07/03 05:18:06;;;;;;;66.22;38.42;;;;;;;15.62;84.60;101706.38;5048256;28;20033;-80
2021/07/03 05:20:54;;;;;;;70.50;40.53;;;;;;;15.73;84.51;101704.72;5046419;28;20039;-80
2021/07/03 05:23:24;;;;;;;71.68;41.08;;;;;;;15.84;84.02;101711.06;5050516;28;20064;-80
2021/07/03 05:25:52;;;;;;;66.97;37.72;;;;;;;15.96;83.82;101709.38;5048018;28;20036;-78
2021/07/03 05:28:24;;;;;;;62.00;37.42;;;;;;;15.97;83.73;101706.72;5047886;28;20162;-80
2021/07/03 05:30:49;;;;;;;66.25;36.30;;;;;;;15.95;83.92;101704.94;5041651;28;20078;-80
2021/07/03 05:33:25;;;;;;;67.75;39.42;;;;;;;15.89;83.82;101704.91;5048961;28;20033;-78
2021/07/03 05:35:51;;;;;;;72.47;41.10;;;;;;;15.81;84.43;101703.03;5048379;28;20061;-80
2021/07/03 05:38:16;;;;;;;69.05;40.35;;;;;;;16.06;84.61;101711.22;5042233;28;20065;-80
2021/07/03 05:40:45;;;;;;;61.45;35.78;;;;;;;16.51;83.83;101701.78;5046137;28;20558;-80
2021/07/03 05:43:11;;;;;;;58.42;36.03;;;;;;;17.01;81.67;101705.59;5049240;28;20028;-80
2021/07/03 05:45:39;;;;;;;60.47;36.50;;;;;;;17.45;79.46;101695.94;5047268;28;20036;-81
2021/07/03 05:48:05;;;;;;;51.65;34.40;;;;;;;17.86;78.51;101689.78;5048886;28;20028;-80
2021/07/03 05:50:31;;;;;;;55.33;33.42;;;;;;;18.26;76.41;101688.00;5048666;28;20041;-79
2021/07/03 05:53:01;;;;;;;48.90;31.23;;;;;;;18.68;75.01;101691.47;5044368;28;20531;-80
2021/07/03 05:55:27;;;;;;;45.88;31.35;;;;;;;19.13;74.00;101694.84;5047426;28;20115;-80
2021/07/03 05:57:55;;;;;;;52.22;32.38;;;;;;;19.38;72.33;101689.34;5045176;28;20116;-80
2021/07/03 06:00:21;;;;;;;45.33;31.52;;;;;;;19.83;71.05;101692.63;5037485;28;20147;-81
2021/07/03 06:02:47;;;;;;;44.63;30.25;;;;;;;20.03;69.49;101688.88;5046215;28;20041;-78
2021/07/03 06:05:36;;;;;;;42.28;30.02;;;;;;;20.46;69.15;101685.75;5036949;28;20037;-80
2021/07/03 06:08:01;;;;;;;45.13;29.17;;;;;;;20.69;66.99;101684.66;5039966;28;20028;-80
2021/07/03 06:10:27;;;;;;;44.85;29.00;;;;;;;20.85;65.91;101682.69;5047980;28;20394;-80
2021/07/03 06:12:57;;;;;;;44.60;30.13;;;;;;;20.96;65.25;101677.16;5051408;28;20043;-79
2021/07/03 06:15:43;;;;;;;43.97;30.20;;;;;;;20.86;65.42;101684.41;5048834;28;20459;-80
2021/07/03 06:18:08;;;;;;;44.63;30.27;;;;;;;21.35;64.34;101677.50;5042034;28;20347;-80
2021/07/03 06:20:36;;;;;;;40.22;29.60;;;;;;;21.63;64.79;101669.09;5047787;28;20028;-81
2021/07/03 06:23:02;;;;;;;39.53;28.08;;;;;;;22.01;62.79;101672.91;5044754;28;20026;-81
2021/07/03 06:25:27;;;;;;;47.50;29.02;;;;;;;21.85;61.90;101669.59;5047029;28;20033;-78
2021/07/03 06:27:53;;;;;;;38.20;28.75;;;;;;;22.31;61.28;101673.25;5045172;28;20022;-78
2021/07/03 06:30:22;;;;;;;43.70;29.90;;;;;;;22.33;61.46;101671.44;5040207;28;20046;-79
2021/07/03 06:32:48;;;;;;;42.88;27.40;;;;;;;22.34;60.25;101667.81;5042180;28;20037;-79
2021/07/03 06:35:33;;;;;;;44.03;29.60;;;;;;;22.07;62.17;101680.84;5040105;28;20026;-79
2021/07/03 06:37:59;;;;;;;41.63;28.58;;;;;;;22.19;61.12;101672.56;5040501;28;20087;-79
2021/07/03 06:40:24;;;;;;;36.35;25.15;;;;;;;22.29;61.19;101675.94;5043649;28;20111;-78
2021/07/03 06:42:49;;;;;;;38.30;26.95;;;;;;;22.56;60.86;101677.25;5039355;28;20030;-79
2021/07/03 06:45:15;;;;;;;37.97;27.90;;;;;;;23.15;60.65;101667.94;5043838;28;20031;-77
2021/07/03 06:47:40;;;;;;;38.60;26.88;;;;;;;23.87;58.25;101670.69;5042558;28;20029;-77
2021/07/03 06:50:26;;;;;;;38.03;27.27;;;;;;;23.76;57.82;101670.09;5036902;28;20116;-79
2021/07/03 06:52:51;;;;;;;37.42;25.63;;;;;;;24.33;56.54;101667.72;5047535;28;20135;-80
2021/07/03 06:55:17;;;;;;;36.35;24.90;;;;;;;24.39;55.31;101667.53;5037370;28;20120;-78
2021/07/03 06:57:43;;;;;;;33.10;24.08;;;;;;;24.33;55.15;101668.59;5041790;28;20471;-79
2021/07/03 07:00:09;;;;;;;33.50;24.25;;;;;;;24.30;58.83;101671.38;5046928;28;20037;-77
2021/07/03 07:02:41;;;;;;;35.55;26.33;;;;;;;24.41;55.80;101665.69;5042962;28;20048;-83
2021/07/03 07:05:37;;;;;;;31.58;24.98;;;;;;;24.65;55.70;101660.56;5043010;28;20398;-81
2021/07/03 07:11:40;;;;;;;31.23;22.00;;;;;;;25.39;53.00;101659.22;5051777;28;20045;-81
2021/07/03 07:14:12;;;;;;;29.55;22.00;;;;;;;25.63;55.49;101655.75;5039215;28;20053;-80
2021/07/03 07:16:54;;;;;;;33.00;23.13;;;;;;;25.65;53.34;101659.25;5043159;28;20500;-82
2021/07/03 07:19:34;;;;;;;33.13;24.02;;;;;;;25.51;51.99;101652.53;5041311;28;20058;-81
2021/07/03 07:22:23;;;;;;;35.03;22.15;;;;;;;26.31;51.27;101658.81;5041886;28;20144;-80
2021/07/03 07:24:51;;;;;;;28.33;23.58;;;;;;;25.33;50.99;101655.81;5045454;28;20088;-80
2021/07/03 07:27:22;;;;;;;26.63;19.52;;;;;;;26.39;51.86;101662.09;5044050;28;20025;-79
2021/07/03 07:30:08;;;;;;;;;;;;;;;;;;;;;
2021/07/03 07:33:05;;;;;;;29.55;21.42;;;;;;;26.82;49.39;101659.63;5038470;28;20041;-80
2021/07/03 07:35:43;;;;;;;33.60;20.70;;;;;;;26.12;49.93;101658.59;5041715;28;20052;-80
2021/07/03 07:38:37;;;;;;;27.08;21.27;;;;;;;26.50;50.26;101659.00;5047954;28;20091;-80
2021/07/03 07:41:03;;;;;;;24.73;18.63;;;;;;;26.45;50.24;101661.84;5045880;28;20047;-80
2021/07/03 07:43:28;;;;;;;28.17;19.98;;;;;;;26.07;49.98;101653.34;5043504;28;20475;-81
2021/07/03 07:46:48;;;;;;;28.45;19.77;;;;;;;25.62;51.54;101659.38;5039660;28;20134;-81
2021/07/03 07:49:14;;;;;;;25.92;20.05;;;;;;;25.07;53.47;101654.81;5041984;28;20088;-80
2021/07/03 07:52:08;;;;;;;25.50;18.13;;;;;;;25.47;53.06;101647.28;5043481;28;20044;-81
2021/07/03 07:54:38;;;;;;;24.98;18.85;;;;;;;25.66;50.86;101652.94;5042890;28;20037;-80
2021/07/03 07:57:49;;;;;;;28.42;18.73;;;;;;;25.96;51.33;101652.81;5046111;28;20170;-82
2021/07/03 08:00:32;;;;;;;24.42;17.13;;;;;;;26.80;48.86;101646.19;5047700;28;20049;-81
2021/07/03 08:03:32;;;;;;;23.38;15.88;;;;;;;25.99;48.13;101641.91;5047065;28;20059;-81
2021/07/03 08:06:41;;;;;;;21.63;14.13;;;;;;;26.10;48.98;101629.00;5059027;28;20124;-81
2021/07/03 08:09:48;;;;;;;;;;;;;;;;;;;;;
2021/07/03 08:13:15;;;;;;;19.33;14.25;;;;;;;24.86;54.27;101627.63;5053297;28;20476;-80
2021/07/03 08:15:58;;;;;;;19.73;13.90;;;;;;;24.56;52.68;101637.47;5048725;28;20379;-80
2021/07/03 08:19:11;;;;;;;19.38;13.57;;;;;;;24.66;52.57;101625.56;5044166;28;20029;-81
2021/07/03 08:21:48;;;;;;;21.98;16.52;;;;;;;24.49;51.98;101628.69;5043287;28;20033;-82
2021/07/03 08:24:45;;;;;;;19.52;13.82;;;;;;;24.88;56.14;101624.91;5043145;28;20037;-81
2021/07/03 08:27:41;;;;;;;18.67;13.20;;;;;;;25.04;53.41;101619.88;5043025;28;20129;-81
2021/07/03 08:30:32;;;;;;;19.65;13.85;;;;;;;24.98;53.19;101625.50;5043938;28;20040;-81
2021/07/03 08:33:05;;;;;;;18.73;13.23;;;;;;;25.07;54.82;101627.91;5041557;28;20132;-80
2021/07/03 08:36:02;;;;;;;20.92;14.35;;;;;;;24.98;53.52;101620.97;5049487;28;20040;-81
2021/07/03 08:38:33;;;;;;;21.80;15.57;;;;;;;24.73;52.68;101626.25;5052645;28;20056;-81
2021/07/03 08:41:31;;;;;;;19.55;14.82;;;;;;;24.44;55.22;101624.38;5042472;28;20037;-81
2021/07/03 08:44:36;;;;;;;20.85;14.02;;;;;;;24.18;52.93;101617.94;5046475;28;20041;-82
2021/07/03 08:47:38;;;;;;;20.98;15.20;;;;;;;23.82;54.72;101626.03;5030312;28;20033;-81
2021/07/03 08:50:14;;;;;;;18.60;12.95;;;;;;;23.90;56.11;101619.59;5043852;28;20054;-80
2021/07/03 08:53:08;;;;;;;25.17;15.55;;;;;;;23.84;55.21;101621.53;5028257;28;20394;-81
2021/07/03 08:55:39;;;;;;;20.20;13.68;;;;;;;23.73;54.83;101625.34;5032436;28;20044;-81
2021/07/03 08:58:15;;;;;;;20.88;14.98;;;;;;;23.34;55.04;101616.50;5045675;28;20052;-81
2021/07/03 09:01:36;;;;;;;21.20;15.38;;;;;;;22.88;56.32;101624.69;5051169;28;20086;-81
2021/07/03 09:04:33;;;;;;;20.55;15.13;;;;;;;22.98;58.79;101629.84;5035379;28;20622;-81
2021/07/03 09:07:34;;;;;;;20.27;14.57;;;;;;;22.92;59.93;101622.81;5033299;28;20104;-81
2021/07/03 09:10:30;;;;;;;23.40;15.38;;;;;;;22.66;57.44;101615.34;5032845;28;20096;-81
2021/07/03 09:13:22;;;;;;;25.15;15.13;;;;;;;22.42;58.57;101614.94;5043700;28;20055;-80
2021/07/03 09:16:13;;;;;;;25.25;15.45;;;;;;;22.40;59.39;101609.59;5034350;28;20507;-82
2021/07/03 09:19:30;;;;;;;22.10;14.98;;;;;;;22.48;59.40;101606.78;5045542;28;20029;-82
2021/07/03 09:22:09;;;;;;;22.13;14.60;;;;;;;22.55;61.67;101611.09;5032743;28;20475;-81
2021/07/03 09:25:34;;;;;;;;;;;;;;;;;;;;;
2021/07/03 09:28:44;;;;;;;;;;;;;;;;;;;;;
2021/07/03 09:32:04;;;;;;;21.67;14.27;;;;;;;23.39;58.34;101603.84;5015826;28;20032;-82
2021/07/03 09:35:07;;;;;;;21.98;13.75;;;;;;;23.41;56.69;101610.06;5034590;28;20219;-82
2021/07/03 09:37:36;;;;;;;19.15;14.25;;;;;;;23.04;56.28;101611.78;5037863;28;20041;-80
2021/07/03 09:40:40;;;;;;;22.23;13.98;;;;;;;23.12;57.54;101603.56;5048625;28;20112;-83
2021/07/03 09:43:30;;;;;;;19.20;13.75;;;;;;;23.27;57.84;101606.84;5035545;28;20068;-83
2021/07/03 09:46:35;;;;;;;20.40;14.25;;;;;;;23.45;57.84;101611.75;5041238;28;20029;-82
2021/07/03 09:49:13;;;;;;;22.58;13.38;;;;;;;23.72;59.89;101604.78;5044746;28;20510;-82
2021/07/03 09:51:43;;;;;;;20.63;14.77;;;;;;;24.00;55.24;101603.22;5042853;28;20033;-80
2021/07/03 09:54:27;;;;;;;22.05;15.15;;;;;;;24.02;56.74;101609.41;5035802;28;20033;-79
2021/07/03 09:57:10;;;;;;;20.55;14.00;;;;;;;24.08;54.98;101607.44;5033575;28;20060;-84
2021/07/03 10:00:21;;;;;;;21.98;13.95;;;;;;;23.82;55.34;101605.44;5045907;28;20184;-81
2021/07/03 10:03:34;;;;;;;20.05;13.45;;;;;;;23.85;55.23;101605.34;5041717;28;20094;-83
2021/07/03 10:10:18;;;;;;;20.35;13.48;;;;;;;24.38;55.41;101604.78;4927199;29;20062;-82
2021/07/03 10:13:17;;;;;;;19.83;12.13;;;;;;;24.62;54.61;101596.97;4930186;29;20036;-82
2021/07/03 10:15:43;;;;;;;13.32;11.63;;;;;;;24.62;53.48;101598.75;4922401;29;20044;-81
2021/07/03 10:18:23;;;;;;;15.65;11.00;;;;;;;24.67;53.62;101599.50;4988292;28;20095;-80
2021/07/03 10:20:53;;;;;;;16.05;10.52;;;;;;;24.57;53.11;101593.50;5009677;28;20033;-81
2021/07/03 10:23:20;;;;;;;14.77;9.90;;;;;;;24.70;55.71;101594.94;5016066;28;20060;-81
2021/07/03 10:25:54;;;;;;;11.57;9.82;;;;;;;24.52;54.99;101590.94;5013286;28;20172;-81
2021/07/03 10:28:42;;;;;;;12.70;10.48;;;;;;;24.36;55.25;101586.94;5013296;28;20089;-80
2021/07/03 10:31:53;;;;;;;13.30;10.98;;;;;;;24.07;55.89;101578.78;5007676;28;20045;-81
2021/07/03 10:38:28;;;;;;;;;;;;;;;;;;;;;
2021/07/03 10:41:34;;;;;;;13.10;10.23;;;;;;;23.79;56.68;101573.25;5015855;28;20029;-85
2021/07/03 10:48:42;;;;;;;;;;;;;;;;;;;;;
2021/07/03 10:52:34;;;;;;;17.95;10.80;;;;;;;23.81;57.12;101549.03;4967314;28;20034;-87
2021/07/03 11:02:49;;;;;;;15.75;12.05;;;;;;;24.06;55.74;101527.75;4866199;29;20037;-83
2021/07/03 11:06:24;;;;;;;15.38;11.07;;;;;;;24.04;54.85;101526.91;4828369;29;20066;-82
2021/07/03 11:13:05;;;;;;;19.42;12.07;;;;;;;24.13;55.20;101518.56;4836708;29;20092;-81
2021/07/03 11:19:49;;;;;;;;;;;;;;;;;;;;;
2021/07/03 11:26:40;;;;;;;;;;;;;;;;;;;;;
2021/07/03 11:33:48;;;;;;;;;;;;;;;;;;;;;
2021/07/03 11:44:40;;;;;;;16.60;11.75;;;;;;;24.74;55.72;101504.19;4913724;29;20036;-82
2021/07/03 12:02:12;;;;;;;;;;;;;;;;;;;;;
2021/07/03 12:06:10;;;;;;;;;;;;;;;;;;;;;
2021/07/03 12:09:36;;;;;;;;;;;;;;;;;;;;;
2021/07/03 12:41:20;;;;;;;12.13;9.60;;;;;;;26.09;51.89;101459.97;4885550;29;20052;-84
2021/07/03 13:03:11;;;;;;;;;;;;;;;;;;;;;
2021/07/03 13:17:18;;;;;;;10.80;7.10;;;;;;;26.22;50.60;101441.47;4763245;29;20464;-84
2021/07/03 13:21:40;;;;;;;8.55;6.75;;;;;;;25.96;50.67;101450.56;4796873;29;20067;-82
2021/07/03 13:24:27;;;;;;;9.88;6.30;;;;;;;26.04;51.31;101451.19;4826403;29;20042;-82
2021/07/03 13:28:17;;;;;;;;;;;;;;;;;;;;;
2021/07/03 13:34:45;;;;;;;;;;;;;;;;;;;;;
2021/07/03 13:48:58;;;;;;;;;;;;;;;;;;;;;
2021/07/03 14:07:59;;;;;;;;;;;;;;;;;;;;;
2021/07/03 14:11:15;;;;;;;;;;;;;;;;;;;;;
2021/07/03 14:14:29;;;;;;;;;;;;;;;;;;;;;
2021/07/03 14:25:21;;;;;;;9.88;7.57;;;;;;;24.08;58.80;101426.41;4762701;30;20089;-85
2021/07/03 14:45:37;;;;;;;18.25;9.80;;;;;;;24.15;59.26;101462.06;4894097;29;20071;-82
2021/07/03 14:48:28;;;;;;;17.65;11.13;;;;;;;23.93;58.54;101451.97;4922957;29;20043;-81
2021/07/03 14:51:44;;;;;;;;;;;;;;;;;;;;;
2021/07/03 14:54:19;;;;;;;13.15;10.38;;;;;;;24.33;57.24;101453.41;4915304;29;20502;-81
2021/07/03 14:56:47;;;;;;;14.38;9.60;;;;;;;24.86;56.35;101451.75;4989180;28;20053;-81
2021/07/03 14:59:18;;;;;;;12.93;9.13;;;;;;;25.23;54.44;101451.38;5013203;28;20519;-80
2021/07/03 15:01:45;;;;;;;11.93;8.63;;;;;;;25.36;53.92;101454.53;5010411;28;20488;-81
2021/07/03 15:04:23;;;;;;;10.23;8.60;;;;;;;25.45;53.34;101452.44;5014757;28;20029;-83
2021/07/03 15:10:08;;;;;;;13.10;9.48;;;;;;;25.35;53.95;101462.69;5019626;28;20026;-83
2021/07/03 15:12:45;;;;;;;11.45;9.13;;;;;;;25.14;53.69;101453.53;5013887;28;20480;-81
2021/07/03 15:16:18;;;;;;;12.32;9.00;;;;;;;24.97;54.38;101452.25;5015497;28;20053;-82
2021/07/03 15:18:47;;;;;;;10.15;8.32;;;;;;;25.27;54.22;101454.81;4989110;28;20041;-82
2021/07/03 15:21:12;;;;;;;15.43;10.13;;;;;;;25.32;53.63;101444.78;5014591;28;20034;-80
2021/07/03 15:23:46;;;;;;;14.02;9.25;;;;;;;25.34;54.07;101455.53;5005745;28;20103;-82
2021/07/03 15:26:12;;;;;;;10.90;7.65;;;;;;;25.51;53.74;101458.50;5012247;28;20048;-80
2021/07/03 15:28:40;;;;;;;12.20;9.23;;;;;;;25.52;53.55;101462.97;5007413;28;20021;-82
2021/07/03 15:31:08;;;;;;;14.15;8.35;;;;;;;25.63;52.84;101449.09;5003926;28;20029;-80
2021/07/03 15:33:43;;;;;;;8.90;7.28;;;;;;;25.64;52.51;101447.25;5007033;28;20056;-82
2021/07/03 15:36:49;;;;;;;10.57;8.27;;;;;;;25.63;53.13;101435.59;5001937;28;20046;-81
2021/07/03 15:39:19;;;;;;;8.38;7.28;;;;;;;25.21;51.50;101445.16;4994951;28;20133;-82
2021/07/03 15:41:58;;;;;;;10.73;7.07;;;;;;;24.80;54.37;101450.16;5011280;28;20029;-84
2021/07/03 15:45:09;;;;;;;9.68;7.88;;;;;;;24.60;54.57;101448.09;5007350;28;20033;-81
2021/07/03 15:48:00;;;;;;;11.48;9.10;;;;;;;24.47;55.54;101442.25;5002565;28;20021;-81
2021/07/03 15:50:52;;;;;;;13.82;9.63;;;;;;;24.20;57.73;101439.47;4997517;28;20038;-81
2021/07/03 15:53:40;;;;;;;12.75;9.93;;;;;;;24.11;55.89;101434.38;5013092;28;20179;-82
2021/07/03 15:56:15;;;;;;;12.85;8.80;;;;;;;23.75;57.34;101439.88;5010971;28;20057;-81
2021/07/03 15:58:58;;;;;;;14.85;10.82;;;;;;;23.61;57.73;101440.28;5008834;28;20480;-81
2021/07/03 16:01:43;;;;;;;12.65;10.77;;;;;;;23.51;58.86;101439.69;5007670;28;20022;-82
2021/07/03 16:04:15;;;;;;;19.70;10.70;;;;;;;23.17;59.54;101439.69;5011178;28;20033;-81
2021/07/03 16:07:19;;;;;;;15.13;11.52;;;;;;;23.18;59.84;101444.16;5019109;28;20025;-81
2021/07/03 16:09:56;;;;;;;14.15;10.57;;;;;;;23.04;59.82;101439.13;5004226;28;20428;-80